Time;durP1;ratioP1;P1;durP2;ratioP2;P2;SDS_P1;SDS_P2;PMS_P1;PMS_P2;Temp;Humidity;BMP_temperature;BMP_pressure;BME280_temperature;BME280_humidity;BME280_pressure;Samples;Min_cycle;Max_cycle;Signal;HPM_P1;HPM_P2
2022/08/25 00:01:50;;;;;;;37.88;23.50;;;;;;;;;;5086096;28;20474;-77
2022/08/25 00:04:17;;;;;;;36.97;23.38;;;;;;;;;;5091363;28;20079;-78
2022/08/25 00:06:45;;;;;;;39.22;25.13;;;;;;;;;;5092950;28;20052;-79
2022/08/25 00:09:12;;;;;;;43.17;26.58;;;;;;;;;;5095586;28;20143;-78
2022/08/25 00:11:39;;;;;;;41.85;26.10;;;;;;;;;;5081350;28;20136;-77
2022/08/25 00:14:08;;;;;;;40.72;26.13;;;;;;;;;;5071021;28;20098;-77
2022/08/25 00:16:35;;;;;;;38.15;24.35;;;;;;;;;;5071992;28;20049;-78
2022/08/25 00:19:04;;;;;;;40.35;24.67;;;;;;;;;;5070251;28;20044;-78
2022/08/25 00:21:31;;;;;;;44.22;26.65;;;;;;;;;;5053165;28;20052;-77
2022/08/25 00:23:58;;;;;;;43.53;25.30;;;;;;;;;;5054774;28;20123;-79
2022/08/25 00:26:25;;;;;;;48.95;26.70;;;;;;;;;;5075544;28;20076;-78
2022/08/25 00:28:52;;;;;;;37.90;25.23;;;;;;;;;;5077289;28;20052;-78
2022/08/25 00:31:27;;;;;;;36.13;23.37;;;;;;;;;;5077271;28;20048;-79
2022/08/25 00:34:06;;;;;;;33.45;22.95;;;;;;;;;;5075992;28;20082;-79
2022/08/25 00:36:33;;;;;;;47.03;27.25;;;;;;;;;;5058004;28;20084;-78
2022/08/25 00:38:59;;;;;;;48.42;28.42;;;;;;;;;;5074352;28;20083;-79
2022/08/25 00:41:26;;;;;;;46.53;26.92;;;;;;;;;;5075464;28;20080;-79
2022/08/25 00:43:54;;;;;;;44.75;26.67;;;;;;;;;;5073357;28;20088;-78
2022/08/25 00:46:22;;;;;;;41.60;25.38;;;;;;;;;;5090934;28;20131;-77
2022/08/25 00:48:57;;;;;;;42.38;25.42;;;;;;;;;;5097002;28;20052;-79
2022/08/25 00:51:28;;;;;;;42.65;26.52;;;;;;;;;;5095786;28;20079;-79
2022/08/25 00:53:54;;;;;;;38.38;26.05;;;;;;;;;;5086065;28;20080;-78
2022/08/25 00:56:21;;;;;;;50.13;28.83;;;;;;;;;;5089681;28;20070;-79
2022/08/25 00:58:49;;;;;;;52.70;29.70;;;;;;;;;;5060865;28;20064;-80
2022/08/25 01:01:15;;;;;;;51.33;29.40;;;;;;;;;;5077651;28;20094;-77
2022/08/25 01:03:42;;;;;;;45.47;27.05;;;;;;;;;;5073809;28;20104;-78
2022/08/25 01:06:10;;;;;;;46.00;29.13;;;;;;;;;;5073501;28;20087;-78
2022/08/25 01:08:37;;;;;;;46.63;27.40;;;;;;;;;;5071708;28;20568;-78
2022/08/25 01:11:05;;;;;;;47.70;25.80;;;;;;;;;;5075846;28;20123;-77
2022/08/25 01:13:34;;;;;;;50.75;27.55;;;;;;;;;;5077716;28;20068;-79
2022/08/25 01:16:01;;;;;;;42.25;27.45;;;;;;;;;;5097285;28;20524;-78
2022/08/25 01:18:27;;;;;;;44.83;26.40;;;;;;;;;;5093512;28;20065;-78
2022/08/25 01:20:54;;;;;;;48.13;26.58;;;;;;;;;;5090326;28;20075;-78
2022/08/25 01:23:21;;;;;;;54.22;31.90;;;;;;;;;;5093100;28;20048;-77
2022/08/25 01:25:57;;;;;;;52.17;29.13;;;;;;;;;;5094161;28;20070;-78
2022/08/25 01:28:24;;;;;;;49.70;29.05;;;;;;;;;;5097967;28;20059;-77
2022/08/25 01:30:51;;;;;;;47.47;28.67;;;;;;;;;;5092594;28;20167;-79
2022/08/25 01:33:18;;;;;;;49.33;28.52;;;;;;;;;;5091652;28;20091;-77
2022/08/25 01:35:44;;;;;;;46.50;27.88;;;;;;;;;;5097731;28;20090;-79
2022/08/25 01:38:11;;;;;;;45.67;27.08;;;;;;;;;;5099858;28;20040;-77
2022/08/25 01:40:38;;;;;;;45.50;26.98;;;;;;;;;;5091734;28;20072;-76
2022/08/25 01:43:05;;;;;;;46.72;27.98;;;;;;;;;;5099083;28;20076;-77
2022/08/25 01:45:32;;;;;;;47.70;27.48;;;;;;;;;;5096549;28;20044;-78
2022/08/25 01:47:58;;;;;;;41.70;25.83;;;;;;;;;;5089632;28;20127;-78
2022/08/25 01:50:25;;;;;;;44.40;27.85;;;;;;;;;;5096859;28;20090;-79
2022/08/25 01:53:01;;;;;;;47.55;28.90;;;;;;;;;;5097508;28;20416;-79
2022/08/25 01:55:28;;;;;;;40.97;26.20;;;;;;;;;;5090776;28;20103;-78
2022/08/25 01:57:55;;;;;;;45.25;27.38;;;;;;;;;;5090875;28;20048;-78
2022/08/25 02:00:21;;;;;;;48.30;28.25;;;;;;;;;;5089968;28;20063;-77
2022/08/25 02:02:48;;;;;;;53.63;32.33;;;;;;;;;;5090253;28;20044;-78
2022/08/25 02:05:20;;;;;;;51.15;30.70;;;;;;;;;;5113922;28;20092;-78
2022/08/25 02:07:49;;;;;;;66.28;33.78;;;;;;;;;;5117505;28;20036;-78
2022/08/25 02:10:16;;;;;;;103.53;41.50;;;;;;;;;;5107831;28;20055;-77
2022/08/25 02:12:42;;;;;;;62.25;35.88;;;;;;;;;;5091378;28;20091;-77
2022/08/25 02:15:09;;;;;;;60.97;35.08;;;;;;;;;;5089722;28;20124;-78
2022/08/25 02:17:35;;;;;;;56.45;32.45;;;;;;;;;;5089136;28;20076;-77
2022/08/25 02:20:07;;;;;;;66.95;35.72;;;;;;;;;;5089947;28;20050;-77
2022/08/25 02:22:33;;;;;;;70.70;38.03;;;;;;;;;;5090373;28;20631;-77
2022/08/25 02:25:00;;;;;;;74.43;40.13;;;;;;;;;;5090865;28;20224;-78
2022/08/25 02:27:27;;;;;;;79.85;39.13;;;;;;;;;;5072082;28;20135;-78
2022/08/25 02:29:53;;;;;;;73.38;39.05;;;;;;;;;;5089550;28;20062;-77
2022/08/25 02:32:19;;;;;;;70.90;37.78;;;;;;;;;;5087435;28;20148;-78
2022/08/25 02:34:46;;;;;;;69.68;38.13;;;;;;;;;;5089365;28;20460;-78
2022/08/25 02:37:12;;;;;;;76.28;39.08;;;;;;;;;;5090980;28;20083;-79
2022/08/25 02:39:39;;;;;;;67.43;36.60;;;;;;;;;;5089661;28;20048;-77
2022/08/25 02:42:06;;;;;;;64.65;36.20;;;;;;;;;;5089239;28;20044;-78
2022/08/25 02:44:32;;;;;;;70.95;38.20;;;;;;;;;;5071240;28;20142;-78
2022/08/25 02:46:59;;;;;;;63.05;35.45;;;;;;;;;;5088641;28;20139;-79
2022/08/25 02:49:25;;;;;;;61.90;35.63;;;;;;;;;;5069889;28;20082;-78
2022/08/25 02:51:53;;;;;;;49.10;32.85;;;;;;;;;;5068666;28;20052;-78
2022/08/25 02:54:19;;;;;;;49.33;31.10;;;;;;;;;;5097764;28;20143;-79
2022/08/25 02:56:47;;;;;;;50.03;30.33;;;;;;;;;;5092327;28;20040;-79
2022/08/25 02:59:13;;;;;;;44.97;30.52;;;;;;;;;;5103484;28;20051;-79
2022/08/25 03:01:40;;;;;;;45.90;28.80;;;;;;;;;;5099407;28;20068;-79
2022/08/25 03:04:06;;;;;;;38.92;27.50;;;;;;;;;;5092766;28;20044;-78
2022/08/25 03:06:33;;;;;;;41.80;28.80;;;;;;;;;;5089625;28;20173;-80
2022/08/25 03:09:00;;;;;;;35.85;26.17;;;;;;;;;;5072462;28;20197;-78
2022/08/25 03:11:27;;;;;;;38.35;27.15;;;;;;;;;;5080155;28;20475;-78
2022/08/25 03:13:53;;;;;;;37.95;26.58;;;;;;;;;;5069966;28;20087;-78
2022/08/25 03:16:20;;;;;;;39.88;27.58;;;;;;;;;;5070153;28;20117;-78
2022/08/25 03:18:47;;;;;;;42.35;26.95;;;;;;;;;;5069706;28;20049;-78
2022/08/25 03:21:13;;;;;;;41.28;26.98;;;;;;;;;;5069923;28;20157;-79
2022/08/25 03:23:41;;;;;;;44.08;27.75;;;;;;;;;;5068248;28;20076;-75
2022/08/25 03:28:56;;;;;;;47.22;29.52;;;;;;;;;;5067953;28;20084;-77
2022/08/25 03:31:24;;;;;;;45.78;29.88;;;;;;;;;;5067540;28;20052;-77
2022/08/25 03:33:54;;;;;;;42.97;27.55;;;;;;;;;;5051968;28;20054;-77
2022/08/25 03:36:21;;;;;;;45.72;27.52;;;;;;;;;;5082419;28;20048;-77
2022/08/25 03:38:49;;;;;;;49.53;30.13;;;;;;;;;;5074009;28;20159;-78
2022/08/25 03:41:20;;;;;;;50.83;29.80;;;;;;;;;;5069552;28;20068;-76
2022/08/25 03:43:47;;;;;;;52.67;31.40;;;;;;;;;;5055828;28;20066;-79
2022/08/25 03:46:21;;;;;;;49.55;29.52;;;;;;;;;;5073002;28;20048;-77
2022/08/25 03:48:48;;;;;;;42.15;27.73;;;;;;;;;;5070245;28;20056;-77
2022/08/25 03:51:34;;;;;;;39.08;26.00;;;;;;;;;;5071830;28;20109;-78
2022/08/25 03:54:01;;;;;;;39.33;26.13;;;;;;;;;;5077782;28;20113;-78
2022/08/25 03:56:28;;;;;;;40.50;27.55;;;;;;;;;;5086741;28;20044;-78
2022/08/25 03:58:54;;;;;;;42.25;25.33;;;;;;;;;;5088253;28;20079;-76
2022/08/25 04:01:21;;;;;;;38.25;26.02;;;;;;;;;;5091066;28;20105;-79
2022/08/25 04:03:48;;;;;;;39.63;25.95;;;;;;;;;;5093888;28;20040;-79
2022/08/25 04:06:16;;;;;;;40.30;26.90;;;;;;;;;;5093868;28;20504;-77
2022/08/25 04:08:42;;;;;;;46.40;29.25;;;;;;;;;;5094084;28;20044;-78
2022/08/25 04:11:11;;;;;;;45.05;27.85;;;;;;;;;;5069074;28;20071;-78
2022/08/25 04:13:38;;;;;;;44.83;29.52;;;;;;;;;;5055753;28;20081;-78
2022/08/25 04:16:13;;;;;;;46.38;27.63;;;;;;;;;;5073272;28;20596;-78
2022/08/25 04:18:40;;;;;;;47.38;28.60;;;;;;;;;;5074478;28;20045;-79
2022/08/25 04:21:08;;;;;;;39.20;25.35;;;;;;;;;;5056524;28;20068;-78
2022/08/25 04:23:35;;;;;;;41.33;24.23;;;;;;;;;;5074456;28;20056;-78
2022/08/25 04:26:07;;;;;;;36.60;24.55;;;;;;;;;;5074304;28;20052;-79
2022/08/25 04:28:33;;;;;;;39.92;24.92;;;;;;;;;;5074577;28;20128;-78
2022/08/25 04:30:59;;;;;;;38.33;24.45;;;;;;;;;;5073159;28;20131;-78
2022/08/25 04:33:26;;;;;;;37.65;24.17;;;;;;;;;;5072075;28;20540;-78
2022/08/25 04:35:52;;;;;;;34.38;24.25;;;;;;;;;;5072314;28;20852;-78
2022/08/25 04:38:19;;;;;;;35.40;24.92;;;;;;;;;;5071069;28;20091;-78
2022/08/25 04:40:53;;;;;;;38.70;25.25;;;;;;;;;;5086343;28;20086;-78
2022/08/25 04:43:20;;;;;;;38.03;23.77;;;;;;;;;;5090795;28;20127;-77
2022/08/25 04:45:46;;;;;;;37.47;24.17;;;;;;;;;;5090880;28;20475;-79
2022/08/25 04:48:13;;;;;;;30.00;19.80;;;;;;;;;;5089607;28;20153;-79
2022/08/25 04:50:39;;;;;;;33.33;20.77;;;;;;;;;;5072910;28;20508;-79
2022/08/25 04:53:05;;;;;;;30.10;21.17;;;;;;;;;;5090923;28;20480;-78
2022/08/25 04:55:32;;;;;;;31.13;19.65;;;;;;;;;;5079017;28;20123;-78
2022/08/25 04:57:58;;;;;;;28.00;18.23;;;;;;;;;;5090531;28;20086;-77
2022/08/25 05:00:25;;;;;;;32.47;18.02;;;;;;;;;;5100059;28;20048;-78
2022/08/25 05:02:52;;;;;;;31.33;17.75;;;;;;;;;;5072075;28;20170;-78
2022/08/25 05:05:18;;;;;;;25.75;16.50;;;;;;;;;;5089844;28;20127;-77
2022/08/25 05:07:46;;;;;;;26.35;16.63;;;;;;;;;;5090206;28;20131;-78
2022/08/25 05:10:12;;;;;;;28.88;16.92;;;;;;;;;;5090172;28;20052;-78
2022/08/25 05:12:39;;;;;;;28.10;15.85;;;;;;;;;;5072172;28;20202;-78
2022/08/25 05:15:49;;;;;;;28.65;16.90;;;;;;;;;;5078745;28;20045;-78
2022/08/25 05:17:53;;;;;;;24.25;17.00;;;;;;;;;;5097866;28;20044;-79
2022/08/25 05:20:21;;;;;;;23.45;15.82;;;;;;;;;;5104418;28;20048;-79
2022/08/25 05:22:47;;;;;;;33.10;18.27;;;;;;;;;;5104410;28;20075;-78
2022/08/25 05:25:14;;;;;;;29.50;18.77;;;;;;;;;;5104740;28;20507;-79
2022/08/25 05:27:41;;;;;;;25.65;17.67;;;;;;;;;;5104842;28;20068;-79
2022/08/25 05:30:11;;;;;;;31.75;21.10;;;;;;;;;;5114075;28;20143;-80
2022/08/25 05:32:37;;;;;;;32.83;22.55;;;;;;;;;;5117002;28;20059;-80
2022/08/25 05:35:05;;;;;;;34.20;21.85;;;;;;;;;;5117583;28;20055;-80
2022/08/25 05:37:33;;;;;;;36.17;24.05;;;;;;;;;;5111878;28;20078;-79
2022/08/25 05:40:00;;;;;;;37.00;23.67;;;;;;;;;;5106153;28;20051;-78
2022/08/25 05:42:27;;;;;;;42.75;26.38;;;;;;;;;;5105650;28;20050;-79
2022/08/25 05:44:54;;;;;;;43.17;27.27;;;;;;;;;;5106826;28;20097;-80
2022/08/25 05:47:20;;;;;;;50.13;27.95;;;;;;;;;;5102661;28;20094;-78
2022/08/25 05:49:47;;;;;;;45.28;27.85;;;;;;;;;;5109287;28;20052;-79
2022/08/25 05:52:13;;;;;;;52.83;31.67;;;;;;;;;;5108059;28;20126;-77
2022/08/25 05:54:45;;;;;;;51.15;30.05;;;;;;;;;;5107053;28;20060;-77
2022/08/25 05:57:12;;;;;;;48.55;30.08;;;;;;;;;;5106979;28;20059;-79
2022/08/25 05:59:38;;;;;;;49.58;29.63;;;;;;;;;;5103371;28;20500;-79
2022/08/25 06:04:50;;;;;;;51.55;30.15;;;;;;;;;;5105332;28;20067;-79
2022/08/25 06:07:21;;;;;;;53.33;29.58;;;;;;;;;;5083326;28;20060;-79
2022/08/25 06:09:51;;;;;;;50.10;29.27;;;;;;;;;;5076503;28;20075;-79
2022/08/25 06:12:20;;;;;;;49.13;30.25;;;;;;;;;;5087368;28;20078;-78
2022/08/25 06:14:48;;;;;;;55.05;29.45;;;;;;;;;;5092873;28;20101;-79
2022/08/25 06:17:15;;;;;;;52.83;29.58;;;;;;;;;;5097523;28;20101;-79
2022/08/25 06:19:42;;;;;;;56.85;29.52;;;;;;;;;;5079133;28;20507;-78
2022/08/25 06:22:11;;;;;;;50.20;28.48;;;;;;;;;;5085909;28;20128;-77
2022/08/25 06:24:38;;;;;;;53.97;29.40;;;;;;;;;;5078880;28;20145;-78
2022/08/25 06:27:05;;;;;;;49.55;28.52;;;;;;;;;;5097477;28;20048;-80
2022/08/25 06:29:31;;;;;;;47.10;26.80;;;;;;;;;;5099746;28;20082;-80
2022/08/25 06:31:59;;;;;;;44.50;26.52;;;;;;;;;;5098168;28;20060;-80
2022/08/25 06:34:26;;;;;;;47.40;28.95;;;;;;;;;;5099678;28;20082;-79
2022/08/25 06:36:52;;;;;;;44.53;27.08;;;;;;;;;;5086623;28;20142;-78
2022/08/25 06:39:18;;;;;;;40.60;25.88;;;;;;;;;;5109199;28;20040;-77
2022/08/25 06:41:49;;;;;;;46.33;26.05;;;;;;;;;;5104124;28;20440;-79
2022/08/25 06:44:15;;;;;;;41.88;25.92;;;;;;;;;;5104095;28;20044;-79
2022/08/25 06:46:41;;;;;;;42.17;25.55;;;;;;;;;;5102228;28;20064;-79
2022/08/25 06:49:08;;;;;;;41.53;25.65;;;;;;;;;;5102308;28;20056;-78
2022/08/25 06:51:34;;;;;;;45.22;25.13;;;;;;;;;;5100950;28;20068;-79
2022/08/25 06:54:02;;;;;;;38.20;24.33;;;;;;;;;;5099964;28;20524;-79
2022/08/25 06:56:29;;;;;;;39.47;23.30;;;;;;;;;;5090321;28;20070;-80
2022/08/25 06:58:55;;;;;;;35.95;22.67;;;;;;;;;;5080710;28;20178;-79
2022/08/25 07:01:24;;;;;;;33.47;20.83;;;;;;;;;;5063452;28;20051;-79
2022/08/25 07:03:56;;;;;;;44.95;21.50;;;;;;;;;;5078733;28;20165;-79
2022/08/25 07:06:23;;;;;;;30.77;19.67;;;;;;;;;;5080218;28;20117;-78
2022/08/25 07:08:50;;;;;;;31.83;19.52;;;;;;;;;;5061969;28;20072;-79
2022/08/25 07:11:16;;;;;;;29.75;17.95;;;;;;;;;;5085746;28;20060;-79
2022/08/25 07:13:44;;;;;;;30.38;17.60;;;;;;;;;;5099389;28;20048;-79
2022/08/25 07:16:11;;;;;;;31.13;17.67;;;;;;;;;;5100022;28;20048;-79
2022/08/25 07:18:37;;;;;;;26.77;17.60;;;;;;;;;;5102921;28;20123;-79
2022/08/25 07:21:04;;;;;;;36.08;19.08;;;;;;;;;;5104902;28;20070;-79
2022/08/25 07:23:34;;;;;;;35.20;17.15;;;;;;;;;;5105523;28;20048;-80
2022/08/25 07:26:08;;;;;;;31.08;17.23;;;;;;;;;;5106140;28;20075;-79
2022/08/25 07:28:47;;;;;;;30.77;17.77;;;;;;;;;;5104352;28;20044;-78
2022/08/25 07:31:16;;;;;;;32.60;17.00;;;;;;;;;;5102717;28;20098;-79
2022/08/25 07:36:30;;;;;;;29.43;16.80;;;;;;;;;;5106455;28;20055;-79
2022/08/25 07:38:57;;;;;;;32.28;16.08;;;;;;;;;;5106532;28;21028;-78
2022/08/25 07:41:24;;;;;;;28.65;16.13;;;;;;;;;;5105663;28;20442;-80
2022/08/25 07:43:50;;;;;;;27.73;15.18;;;;;;;;;;5107204;28;20090;-79
2022/08/25 07:46:16;;;;;;;28.98;15.25;;;;;;;;;;5105968;28;20048;-80
2022/08/25 07:48:43;;;;;;;25.90;14.93;;;;;;;;;;5105755;28;20051;-79
2022/08/25 07:51:18;;;;;;;26.38;14.73;;;;;;;;;;5104596;28;20048;-79
2022/08/25 07:53:45;;;;;;;24.10;14.63;;;;;;;;;;5105033;28;20052;-78
2022/08/25 07:56:15;;;;;;;27.67;14.75;;;;;;;;;;5077518;28;20055;-79
2022/08/25 07:58:45;;;;;;;30.58;15.25;;;;;;;;;;5067681;28;20052;-79
2022/08/25 08:01:13;;;;;;;32.10;14.10;;;;;;;;;;5068151;28;20063;-78
2022/08/25 08:03:43;;;;;;;26.92;13.25;;;;;;;;;;5086162;28;20075;-78
2022/08/25 08:06:17;;;;;;;24.92;12.70;;;;;;;;;;5070485;28;20052;-80
2022/08/25 08:08:48;;;;;;;23.95;13.73;;;;;;;;;;5086148;28;20087;-79
2022/08/25 08:11:20;;;;;;;22.70;13.73;;;;;;;;;;5086549;28;20055;-80
2022/08/25 08:13:49;;;;;;;21.65;13.75;;;;;;;;;;5086448;28;20045;-79
2022/08/25 08:16:18;;;;;;;26.83;13.55;;;;;;;;;;5086615;28;20401;-78
2022/08/25 08:18:45;;;;;;;29.75;12.70;;;;;;;;;;5085674;28;20049;-78
2022/08/25 08:21:16;;;;;;;26.65;13.50;;;;;;;;;;5087000;28;20147;-79
2022/08/25 08:23:47;;;;;;;25.05;13.45;;;;;;;;;;5087241;28;20060;-78
2022/08/25 08:26:14;;;;;;;26.75;15.02;;;;;;;;;;5091844;28;20104;-78
2022/08/25 08:28:44;;;;;;;24.75;12.73;;;;;;;;;;5087360;28;20131;-77
2022/08/25 08:31:19;;;;;;;22.17;11.75;;;;;;;;;;5084997;28;20059;-78
2022/08/25 08:33:49;;;;;;;20.98;10.93;;;;;;;;;;5084083;28;20139;-80
2022/08/25 08:36:15;;;;;;;24.70;11.63;;;;;;;;;;5069962;28;20121;-79
2022/08/25 08:38:42;;;;;;;26.42;13.45;;;;;;;;;;5087524;28;20078;-79
2022/08/25 08:44:36;;;;;;;31.20;13.30;;;;;;;;;;5087435;28;20108;-80
2022/08/25 08:47:09;;;;;;;19.23;11.43;;;;;;;;;;5089819;28;20059;-79
2022/08/25 08:49:44;;;;;;;25.58;11.18;;;;;;;;;;5092004;28;20032;-80
2022/08/25 08:52:11;;;;;;;;;;;;;;;;;;5097658;28;20044;-79
2022/08/25 08:54:38;;;;;;;24.73;12.27;;;;;;;;;;5102137;28;19931;-80
2022/08/25 08:57:18;;;;;;;26.10;12.13;;;;;;;;;;5106311;28;20072;-79
2022/08/25 08:59:50;;;;;;;25.95;11.65;;;;;;;;;;5090877;28;20044;-78
2022/08/25 09:02:27;;;;;;;26.67;12.68;;;;;;;;;;5094688;28;20032;-77
2022/08/25 09:05:18;;;;;;;19.67;12.15;;;;;;;;;;5093484;28;20080;-79
2022/08/25 09:07:47;;;;;;;31.65;12.50;;;;;;;;;;5094120;28;20045;-78
2022/08/25 09:10:17;;;;;;;23.42;12.57;;;;;;;;;;5093183;28;20040;-78
2022/08/25 09:12:46;;;;;;;24.13;12.65;;;;;;;;;;5092522;28;20048;-78
2022/08/25 09:16:53;;;;;;;26.00;12.90;;;;;;;;;;5095646;28;20042;-79
2022/08/25 09:18:23;;;;;;;22.63;12.43;;;;;;;;;;5094838;28;20039;-77
2022/08/25 09:20:56;;;;;;;23.95;11.68;;;;;;;;;;5090266;28;20055;-78
2022/08/25 09:23:38;;;;;;;23.17;11.88;;;;;;;;;;5079709;28;20049;-79
2022/08/25 09:26:20;;;;;;;22.83;11.88;;;;;;;;;;5080052;28;20048;-77
2022/08/25 09:28:49;;;;;;;29.88;11.60;;;;;;;;;;5079192;28;20121;-80
2022/08/25 09:31:30;;;;;;;26.38;10.13;;;;;;;;;;5080386;28;20432;-79
2022/08/25 09:33:59;;;;;;;21.85;9.68;;;;;;;;;;5059200;28;20056;-79
2022/08/25 09:36:25;;;;;;;23.55;10.00;;;;;;;;;;5083030;28;20048;-79
2022/08/25 09:38:52;;;;;;;28.42;10.70;;;;;;;;;;5082284;28;20056;-79
2022/08/25 09:41:39;;;;;;;31.70;10.23;;;;;;;;;;5079700;28;20052;-79
2022/08/25 09:44:15;;;;;;;31.33;10.45;;;;;;;;;;5080393;28;20040;-79
2022/08/25 09:46:54;;;;;;;27.13;9.38;;;;;;;;;;5082381;28;20524;-78
2022/08/25 09:49:20;;;;;;;29.80;9.18;;;;;;;;;;5082163;28;20099;-79
2022/08/25 09:51:47;;;;;;;24.67;8.18;;;;;;;;;;5100155;22;20047;-80
2022/08/25 09:54:18;;;;;;;34.50;8.75;;;;;;;;;;5103509;28;20047;-78
2022/08/25 09:56:56;;;;;;;26.50;7.82;;;;;;;;;;5101981;28;20416;-81
2022/08/25 09:59:22;;;;;;;33.47;7.47;;;;;;;;;;5096860;28;20497;-82
2022/08/25 10:02:10;;;;;;;32.38;7.10;;;;;;;;;;5081886;28;20087;-83
2022/08/25 10:04:41;;;;;;;29.45;7.07;;;;;;;;;;5096041;28;20080;-83
2022/08/25 10:07:24;;;;;;;30.25;7.35;;;;;;;;;;5093897;28;20546;-80
2022/08/25 10:09:53;;;;;;;28.75;7.20;;;;;;;;;;5098051;28;20059;-81
2022/08/25 10:12:39;;;;;;;29.30;7.38;;;;;;;;;;5080349;28;20078;-81
2022/08/25 10:15:22;;;;;;;21.60;6.70;;;;;;;;;;5098600;28;20067;-80
2022/08/25 10:17:58;;;;;;;41.25;7.00;;;;;;;;;;5077444;28;20125;-82
2022/08/25 10:20:26;;;;;;;29.33;6.72;;;;;;;;;;5093573;28;20048;-82
2022/08/25 10:23:18;;;;;;;26.80;6.72;;;;;;;;;;5079006;28;20048;-79
2022/08/25 10:25:48;;;;;;;36.28;6.75;;;;;;;;;;5077196;28;20048;-80
2022/08/25 10:28:32;;;;;;;33.90;7.20;;;;;;;;;;5096676;28;20083;-80
2022/08/25 10:30:59;;;;;;;28.55;6.55;;;;;;;;;;5077881;28;20131;-80
2022/08/25 10:33:31;;;;;;;21.63;6.50;;;;;;;;;;5097512;28;20107;-80
2022/08/25 10:36:03;;;;;;;31.23;7.20;;;;;;;;;;5078036;28;20044;-80
2022/08/25 10:38:44;;;;;;;29.25;7.55;;;;;;;;;;5095363;28;20055;-82
2022/08/25 10:41:25;;;;;;;25.55;7.32;;;;;;;;;;5094099;28;20094;-82
2022/08/25 10:43:56;;;;;;;23.48;7.35;;;;;;;;;;5076625;28;20086;-82
2022/08/25 10:46:32;;;;;;;19.20;6.57;;;;;;;;;;5079709;28;20098;-81
2022/08/25 10:49:01;;;;;;;30.27;6.72;;;;;;;;;;5098459;28;20052;-81
2022/08/25 10:51:28;;;;;;;31.02;7.03;;;;;;;;;;5095308;28;20080;-80
2022/08/25 10:54:04;;;;;;;23.67;7.15;;;;;;;;;;5095610;28;20052;-82
2022/08/25 10:56:30;;;;;;;31.42;6.20;;;;;;;;;;5070137;28;20130;-81
2022/08/25 10:59:06;;;;;;;27.20;6.90;;;;;;;;;;5080301;28;20040;-81
2022/08/25 11:01:44;;;;;;;31.67;6.80;;;;;;;;;;5094772;28;20386;-81
2022/08/25 11:04:14;;;;;;;38.38;7.18;;;;;;;;;;5095278;28;20496;-81
2022/08/25 11:06:48;;;;;;;38.25;7.50;;;;;;;;;;5097482;28;20073;-81
2022/08/25 11:09:27;;;;;;;34.58;6.80;;;;;;;;;;5095614;28;20056;-81
2022/08/25 11:11:57;;;;;;;37.72;6.82;;;;;;;;;;5080132;28;20423;-81
2022/08/25 11:14:27;;;;;;;33.40;6.50;;;;;;;;;;5057811;28;20036;-81
2022/08/25 11:17:03;;;;;;;31.30;6.05;;;;;;;;;;5075151;28;20131;-79
2022/08/25 11:19:30;;;;;;;47.90;7.40;;;;;;;;;;5056269;28;20485;-81
2022/08/25 11:22:11;;;;;;;44.67;7.70;;;;;;;;;;5072641;28;20429;-82
2022/08/25 11:24:38;;;;;;;25.75;6.35;;;;;;;;;;5075529;28;20113;-81
2022/08/25 11:27:07;;;;;;;40.38;7.10;;;;;;;;;;5074738;28;20485;-80
2022/08/25 11:29:40;;;;;;;30.93;6.27;;;;;;;;;;5059837;28;20044;-81
2022/08/25 11:32:07;;;;;;;31.77;7.03;;;;;;;;;;5075754;28;20040;-79
2022/08/25 11:34:35;;;;;;;44.13;6.82;;;;;;;;;;5072586;28;20087;-80
2022/08/25 11:37:19;;;;;;;34.00;6.15;;;;;;;;;;5074179;28;20628;-79
2022/08/25 11:40:05;;;;;;;45.85;6.47;;;;;;;;;;5074175;28;20055;-80
2022/08/25 11:42:47;;;;;;;35.72;6.72;;;;;;;;;;5076737;28;20053;-79
2022/08/25 11:45:19;;;;;;;41.50;6.93;;;;;;;;;;5076115;28;20088;-80
2022/08/25 11:47:46;;;;;;;36.58;6.35;;;;;;;;;;5056651;28;20095;-78
2022/08/25 11:50:18;;;;;;;34.00;6.20;;;;;;;;;;5071356;28;20131;-79
2022/08/25 11:52:50;;;;;;;33.92;5.63;;;;;;;;;;5052735;28;20083;-81
2022/08/25 11:55:35;;;;;;;37.90;6.40;;;;;;;;;;5087173;28;20084;-80
2022/08/25 11:58:14;;;;;;;28.27;6.30;;;;;;;;;;5095723;28;20044;-80
2022/08/25 12:00:42;;;;;;;36.45;6.13;;;;;;;;;;5074189;28;20094;-80
2022/08/25 12:03:31;;;;;;;37.95;6.60;;;;;;;;;;5090991;28;20048;-81
2022/08/25 12:06:17;;;;;;;29.15;6.43;;;;;;;;;;5094688;28;20418;-80
2022/08/25 12:08:44;;;;;;;;;;;;;;;;;;5085520;28;20040;-79
2022/08/25 12:11:13;;;;;;;32.05;6.40;;;;;;;;;;5092870;28;20012;-81
2022/08/25 12:13:40;;;;;;;38.72;6.78;;;;;;;;;;5059351;28;20080;-80
2022/08/25 12:16:34;;;;;;;36.83;6.25;;;;;;;;;;5060680;28;20094;-83
2022/08/25 12:19:19;;;;;;;36.22;6.43;;;;;;;;;;5075885;28;20179;-78
2022/08/25 12:21:46;;;;;;;35.90;6.88;;;;;;;;;;5075672;28;20532;-81
2022/08/25 12:24:13;;;;;;;38.38;6.72;;;;;;;;;;5075086;28;20088;-81
2022/08/25 12:26:47;;;;;;;32.78;7.00;;;;;;;;;;5076051;28;20058;-81
2022/08/25 12:29:19;;;;;;;30.73;6.35;;;;;;;;;;5077398;28;20040;-80
2022/08/25 12:31:56;;;;;;;30.83;6.25;;;;;;;;;;5075838;28;20465;-81
2022/08/25 12:34:29;;;;;;;36.38;6.70;;;;;;;;;;5076302;28;20048;-80
2022/08/25 12:37:16;;;;;;;29.95;6.47;;;;;;;;;;5076624;28;20048;-79
2022/08/25 12:39:48;;;;;;;38.47;6.30;;;;;;;;;;5057664;28;20075;-80
2022/08/25 12:42:18;;;;;;;32.53;6.40;;;;;;;;;;5074144;28;20211;-79
2022/08/25 12:45:12;;;;;;;41.33;6.75;;;;;;;;;;5075353;28;20045;-77
2022/08/25 12:47:41;;;;;;;47.90;6.38;;;;;;;;;;5075345;28;20126;-79
2022/08/25 12:50:28;;;;;;;36.95;6.80;;;;;;;;;;5035584;28;20053;-80
2022/08/25 12:52:56;;;;;;;33.72;6.47;;;;;;;;;;5036896;28;20053;-82
2022/08/25 12:55:25;;;;;;;36.90;6.65;;;;;;;;;;5057685;28;20057;-80
2022/08/25 12:57:56;;;;;;;48.33;7.25;;;;;;;;;;5070178;28;20082;-78
2022/08/25 13:00:28;;;;;;;36.38;6.55;;;;;;;;;;5075967;28;20044;-78
2022/08/25 13:03:01;;;;;;;42.42;6.85;;;;;;;;;;5100906;28;20044;-79
2022/08/25 13:05:48;;;;;;;32.15;5.88;;;;;;;;;;5083692;28;20052;-80
2022/08/25 13:08:47;;;;;;;32.42;6.40;;;;;;;;;;5082676;28;20162;-81
2022/08/25 13:11:27;;;;;;;35.10;6.10;;;;;;;;;;5034308;28;20048;-81
2022/08/25 13:14:05;;;;;;;38.38;6.57;;;;;;;;;;5061102;28;20139;-79
2022/08/25 13:16:32;;;;;;;35.10;6.40;;;;;;;;;;5061983;28;20059;-81
2022/08/25 13:19:02;;;;;;;31.17;6.25;;;;;;;;;;5058371;28;20059;-81
2022/08/25 13:21:35;;;;;;;39.05;6.07;;;;;;;;;;5059844;28;20235;-80
2022/08/25 13:24:05;;;;;;;27.20;5.65;;;;;;;;;;5076414;28;20480;-81
2022/08/25 13:26:32;;;;;;;32.60;6.10;;;;;;;;;;5059011;28;20551;-81
2022/08/25 13:29:02;;;;;;;34.63;5.78;;;;;;;;;;5077019;28;20080;-81
2022/08/25 13:31:37;;;;;;;35.55;6.10;;;;;;;;;;5075469;28;20044;-80
2022/08/25 13:34:08;;;;;;;29.60;5.90;;;;;;;;;;5059818;28;20044;-81
2022/08/25 13:39:33;;;;;;;33.13;5.43;;;;;;;;;;5103589;28;20051;-82
2022/08/25 13:42:19;;;;;;;34.00;6.13;;;;;;;;;;5078365;28;20107;-84
2022/08/25 13:44:54;;;;;;;38.72;6.47;;;;;;;;;;5101316;28;20083;-82
2022/08/25 13:47:34;;;;;;;32.63;6.43;;;;;;;;;;5096020;28;20469;-79
2022/08/25 13:50:14;;;;;;;33.85;5.85;;;;;;;;;;5093592;28;20046;-78
2022/08/25 13:52:45;;;;;;;27.50;5.55;;;;;;;;;;5096118;28;20052;-77
2022/08/25 13:55:17;;;;;;;28.38;5.80;;;;;;;;;;5079493;28;20086;-80
2022/08/25 13:57:44;;;;;;;26.58;5.75;;;;;;;;;;5094650;28;20044;-81
2022/08/25 14:00:12;;;;;;;35.00;5.75;;;;;;;;;;5092634;28;20052;-78
2022/08/25 14:02:43;;;;;;;34.08;6.63;;;;;;;;;;5092928;28;20123;-83
2022/08/25 14:05:18;;;;;;;21.98;5.43;;;;;;;;;;5094810;28;20496;-78
2022/08/25 14:07:52;;;;;;;36.00;6.20;;;;;;;;;;5096289;28;20059;-83
2022/08/25 14:10:40;;;;;;;21.48;5.82;;;;;;;;;;5076134;28;20058;-80
2022/08/25 14:13:15;;;;;;;37.60;6.00;;;;;;;;;;5076773;28;20151;-80
2022/08/25 14:15:46;;;;;;;28.13;5.60;;;;;;;;;;5075479;28;20098;-83
2022/08/25 14:18:21;;;;;;;21.92;5.22;;;;;;;;;;5076953;28;20049;-80
2022/08/25 14:20:53;;;;;;;23.17;5.65;;;;;;;;;;5081691;28;20048;-79
2022/08/25 14:23:22;;;;;;;21.80;5.38;;;;;;;;;;5061531;28;20052;-79
2022/08/25 14:25:49;;;;;;;26.85;5.75;;;;;;;;;;5080600;28;20056;-80
2022/08/25 14:28:20;;;;;;;31.52;6.32;;;;;;;;;;5077242;28;20517;-78
2022/08/25 14:31:03;;;;;;;30.02;5.47;;;;;;;;;;5071972;28;20477;-80
2022/08/25 14:33:38;;;;;;;32.53;5.63;;;;;;;;;;5057289;28;20550;-78
2022/08/25 14:36:05;;;;;;;29.23;5.97;;;;;;;;;;5074424;28;20470;-76
2022/08/25 14:38:32;;;;;;;24.13;5.70;;;;;;;;;;5071205;28;20040;-75
2022/08/25 14:40:58;;;;;;;33.05;6.15;;;;;;;;;;5070287;28;20076;-77
2022/08/25 14:43:25;;;;;;;37.25;5.65;;;;;;;;;;5070795;28;20083;-79
2022/08/25 14:45:57;;;;;;;28.85;5.85;;;;;;;;;;5070816;28;20049;-75
2022/08/25 14:48:25;;;;;;;23.17;5.38;;;;;;;;;;5069436;28;20045;-78
2022/08/25 14:50:53;;;;;;;21.35;5.25;;;;;;;;;;5053974;28;20048;-77
2022/08/25 14:53:19;;;;;;;30.38;5.80;;;;;;;;;;5058619;28;20060;-77
2022/08/25 14:55:45;;;;;;;25.65;5.45;;;;;;;;;;5068588;28;20060;-74